sensor_id;sensor_type;location;lat;lon;timestamp;P1;durP1;ratioP1;P2;durP2;ratioP2
23370;SDS011;11858;51.056;3.712;2023-06-01T00:01:58;10.63;;;10.02;;
23370;SDS011;11858;51.056;3.712;2023-06-01T00:04:23;11.10;;;10.50;;
23370;SDS011;11858;51.056;3.712;2023-06-01T00:06:49;10.98;;;10.38;;
23370;SDS011;11858;51.056;3.712;2023-06-01T00:09:15;10.68;;;10.07;;
23370;SDS011;11858;51.056;3.712;2023-06-01T00:11:41;11.27;;;10.68;;
23370;SDS011;11858;51.056;3.712;2023-06-01T00:14:06;10.60;;;10.00;;
23370;SDS011;11858;51.056;3.712;2023-06-01T00:16:32;11.70;;;11.10;;
23370;SDS011;11858;51.056;3.712;2023-06-01T00:18:58;11.02;;;10.43;;
23370;SDS011;11858;51.056;3.712;2023-06-01T00:21:26;10.85;;;10.25;;
23370;SDS011;11858;51.056;3.712;2023-06-01T00:23:53;11.15;;;10.55;;
23370;SDS011;11858;51.056;3.712;2023-06-01T00:26:18;10.90;;;10.30;;
23370;SDS011;11858;51.056;3.712;2023-06-01T00:28:44;10.95;;;10.35;;
23370;SDS011;11858;51.056;3.712;2023-06-01T00:31:10;12.75;;;11.88;;
23370;SDS011;11858;51.056;3.712;2023-06-01T00:33:35;11.13;;;10.52;;
23370;SDS011;11858;51.056;3.712;2023-06-01T00:36:01;10.75;;;10.15;;
23370;SDS011;11858;51.056;3.712;2023-06-01T00:38:27;15.25;;;10.57;;
23370;SDS011;11858;51.056;3.712;2023-06-01T00:40:52;11.15;;;10.55;;
23370;SDS011;11858;51.056;3.712;2023-06-01T00:43:18;12.15;;;11.45;;
23370;SDS011;11858;51.056;3.712;2023-06-01T00:45:44;10.38;;;9.85;;
23370;SDS011;11858;51.056;3.712;2023-06-01T00:48:10;11.40;;;10.80;;
23370;SDS011;11858;51.056;3.712;2023-06-01T00:50:37;10.68;;;10.07;;
23370;SDS011;11858;51.056;3.712;2023-06-01T00:53:05;15.98;;;11.57;;
23370;SDS011;11858;51.056;3.712;2023-06-01T00:55:34;10.30;;;9.80;;
23370;SDS011;11858;51.056;3.712;2023-06-01T00:58:00;10.95;;;10.25;;
23370;SDS011;11858;51.056;3.712;2023-06-01T01:00:26;9.63;;;9.13;;
23370;SDS011;11858;51.056;3.712;2023-06-01T01:02:53;10.77;;;10.18;;
23370;SDS011;11858;51.056;3.712;2023-06-01T01:05:22;11.77;;;10.98;;
23370;SDS011;11858;51.056;3.712;2023-06-01T01:07:55;10.35;;;9.77;;
23370;SDS011;11858;51.056;3.712;2023-06-01T01:13:25;9.90;;;9.40;;
23370;SDS011;11858;51.056;3.712;2023-06-01T01:16:06;9.73;;;9.23;;
23370;SDS011;11858;51.056;3.712;2023-06-01T01:21:24;10.07;;;9.57;;
23370;SDS011;11858;51.056;3.712;2023-06-01T01:26:46;10.35;;;9.82;;
23370;SDS011;11858;51.056;3.712;2023-06-01T01:29:17;16.50;;;11.23;;
23370;SDS011;11858;51.056;3.712;2023-06-01T01:31:45;10.70;;;10.10;;
23370;SDS011;11858;51.056;3.712;2023-06-01T01:34:14;11.63;;;10.88;;
23370;SDS011;11858;51.056;3.712;2023-06-01T01:36:42;9.38;;;8.88;;
23370;SDS011;11858;51.056;3.712;2023-06-01T01:39:08;8.80;;;8.40;;
23370;SDS011;11858;51.056;3.712;2023-06-01T01:41:34;8.85;;;8.40;;
23370;SDS011;11858;51.056;3.712;2023-06-01T01:43:59;9.18;;;8.68;;
23370;SDS011;11858;51.056;3.712;2023-06-01T01:46:29;9.00;;;8.50;;
23370;SDS011;11858;51.056;3.712;2023-06-01T01:49:07;9.30;;;8.75;;
23370;SDS011;11858;51.056;3.712;2023-06-01T01:51:50;9.07;;;8.57;;
23370;SDS011;11858;51.056;3.712;2023-06-01T01:54:21;8.63;;;8.23;;
23370;SDS011;11858;51.056;3.712;2023-06-01T01:56:47;8.48;;;8.07;;
23370;SDS011;11858;51.056;3.712;2023-06-01T01:59:15;8.38;;;7.97;;
23370;SDS011;11858;51.056;3.712;2023-06-01T02:01:42;8.30;;;7.90;;
23370;SDS011;11858;51.056;3.712;2023-06-01T02:04:09;8.60;;;8.20;;
23370;SDS011;11858;51.056;3.712;2023-06-01T02:06:35;8.40;;;8.00;;
23370;SDS011;11858;51.056;3.712;2023-06-01T02:09:01;8.43;;;8.02;;
23370;SDS011;11858;51.056;3.712;2023-06-01T02:11:31;7.65;;;7.25;;
23370;SDS011;11858;51.056;3.712;2023-06-01T02:13:57;8.10;;;7.70;;
23370;SDS011;11858;51.056;3.712;2023-06-01T02:16:23;7.82;;;7.43;;
23370;SDS011;11858;51.056;3.712;2023-06-01T02:18:49;8.82;;;8.35;;
23370;SDS011;11858;51.056;3.712;2023-06-01T02:21:15;7.75;;;7.35;;
23370;SDS011;11858;51.056;3.712;2023-06-01T02:23:40;7.97;;;7.57;;
23370;SDS011;11858;51.056;3.712;2023-06-01T02:26:07;7.85;;;7.45;;
23370;SDS011;11858;51.056;3.712;2023-06-01T02:28:36;7.15;;;6.78;;
23370;SDS011;11858;51.056;3.712;2023-06-01T02:31:03;7.43;;;7.03;;
23370;SDS011;11858;51.056;3.712;2023-06-01T02:33:30;7.40;;;7.00;;
23370;SDS011;11858;51.056;3.712;2023-06-01T02:35:56;9.63;;;8.82;;
23370;SDS011;11858;51.056;3.712;2023-06-01T02:38:22;7.97;;;7.55;;
23370;SDS011;11858;51.056;3.712;2023-06-01T02:40:48;7.50;;;7.10;;
23370;SDS011;11858;51.056;3.712;2023-06-01T02:43:14;6.70;;;6.40;;
23370;SDS011;11858;51.056;3.712;2023-06-01T02:45:39;6.97;;;6.68;;
23370;SDS011;11858;51.056;3.712;2023-06-01T02:48:05;6.68;;;6.38;;
23370;SDS011;11858;51.056;3.712;2023-06-01T02:50:31;7.43;;;7.03;;
23370;SDS011;11858;51.056;3.712;2023-06-01T02:52:56;8.20;;;7.68;;
23370;SDS011;11858;51.056;3.712;2023-06-01T02:55:22;7.40;;;7.00;;
23370;SDS011;11858;51.056;3.712;2023-06-01T02:57:48;6.70;;;6.40;;
23370;SDS011;11858;51.056;3.712;2023-06-01T03:00:13;7.57;;;7.18;;
23370;SDS011;11858;51.056;3.712;2023-06-01T03:02:42;7.75;;;7.35;;
23370;SDS011;11858;51.056;3.712;2023-06-01T03:05:08;8.20;;;7.75;;
23370;SDS011;11858;51.056;3.712;2023-06-01T03:07:34;8.43;;;7.93;;
23370;SDS011;11858;51.056;3.712;2023-06-01T03:10:00;9.63;;;9.10;;
23370;SDS011;11858;51.056;3.712;2023-06-01T03:12:26;8.13;;;7.47;;
23370;SDS011;11858;51.056;3.712;2023-06-01T03:14:51;9.05;;;8.55;;
23370;SDS011;11858;51.056;3.712;2023-06-01T03:17:17;7.43;;;7.03;;
23370;SDS011;11858;51.056;3.712;2023-06-01T03:19:42;8.18;;;7.78;;
23370;SDS011;11858;51.056;3.712;2023-06-01T03:22:08;7.90;;;7.50;;
23370;SDS011;11858;51.056;3.712;2023-06-01T03:24:34;8.18;;;7.70;;
23370;SDS011;11858;51.056;3.712;2023-06-01T03:26:59;7.90;;;7.50;;
23370;SDS011;11858;51.056;3.712;2023-06-01T03:29:26;18.75;;;17.33;;
23370;SDS011;11858;51.056;3.712;2023-06-01T03:31:51;10.60;;;9.65;;
23370;SDS011;11858;51.056;3.712;2023-06-01T03:34:17;8.05;;;7.55;;
23370;SDS011;11858;51.056;3.712;2023-06-01T03:36:43;8.10;;;7.70;;
23370;SDS011;11858;51.056;3.712;2023-06-01T03:39:13;8.30;;;7.78;;
23370;SDS011;11858;51.056;3.712;2023-06-01T03:41:41;6.75;;;6.45;;
23370;SDS011;11858;51.056;3.712;2023-06-01T03:44:08;6.47;;;6.18;;
23370;SDS011;11858;51.056;3.712;2023-06-01T03:46:34;17.13;;;9.18;;
23370;SDS011;11858;51.056;3.712;2023-06-01T03:49:00;5.90;;;5.60;;
23370;SDS011;11858;51.056;3.712;2023-06-01T03:51:26;6.20;;;5.90;;
23370;SDS011;11858;51.056;3.712;2023-06-01T03:53:52;6.78;;;6.47;;
23370;SDS011;11858;51.056;3.712;2023-06-01T03:56:17;6.10;;;5.80;;
23370;SDS011;11858;51.056;3.712;2023-06-01T03:58:44;7.30;;;6.90;;
23370;SDS011;11858;51.056;3.712;2023-06-01T04:01:11;6.38;;;6.07;;
23370;SDS011;11858;51.056;3.712;2023-06-01T04:03:37;6.45;;;6.07;;
23370;SDS011;11858;51.056;3.712;2023-06-01T04:06:03;6.32;;;6.03;;
23370;SDS011;11858;51.056;3.712;2023-06-01T04:08:37;6.32;;;6.03;;
23370;SDS011;11858;51.056;3.712;2023-06-01T04:11:07;6.97;;;6.60;;
23370;SDS011;11858;51.056;3.712;2023-06-01T04:13:32;7.40;;;7.00;;
23370;SDS011;11858;51.056;3.712;2023-06-01T04:15:58;7.72;;;7.32;;
23370;SDS011;11858;51.056;3.712;2023-06-01T04:18:23;7.00;;;6.70;;
23370;SDS011;11858;51.056;3.712;2023-06-01T04:20:49;9.32;;;8.68;;
23370;SDS011;11858;51.056;3.712;2023-06-01T04:23:15;6.85;;;6.55;;
23370;SDS011;11858;51.056;3.712;2023-06-01T04:25:41;7.68;;;7.28;;
23370;SDS011;11858;51.056;3.712;2023-06-01T04:28:09;7.72;;;7.32;;
23370;SDS011;11858;51.056;3.712;2023-06-01T04:30:35;6.90;;;6.60;;
23370;SDS011;11858;51.056;3.712;2023-06-01T04:33:01;7.63;;;7.22;;
23370;SDS011;11858;51.056;3.712;2023-06-01T04:35:26;9.50;;;8.98;;
23370;SDS011;11858;51.056;3.712;2023-06-01T04:37:52;7.80;;;7.40;;
23370;SDS011;11858;51.056;3.712;2023-06-01T04:40:17;8.43;;;8.02;;
23370;SDS011;11858;51.056;3.712;2023-06-01T04:42:43;9.27;;;8.68;;
23370;SDS011;11858;51.056;3.712;2023-06-01T04:45:14;9.45;;;8.95;;
23370;SDS011;11858;51.056;3.712;2023-06-01T04:47:40;11.45;;;10.65;;
23370;SDS011;11858;51.056;3.712;2023-06-01T04:50:10;9.70;;;9.20;;
23370;SDS011;11858;51.056;3.712;2023-06-01T04:52:37;9.23;;;8.73;;
23370;SDS011;11858;51.056;3.712;2023-06-01T04:55:03;9.98;;;9.48;;
23370;SDS011;11858;51.056;3.712;2023-06-01T04:57:30;9.27;;;8.68;;
23370;SDS011;11858;51.056;3.712;2023-06-01T04:59:57;9.43;;;8.93;;
23370;SDS011;11858;51.056;3.712;2023-06-01T05:02:24;9.57;;;9.07;;
23370;SDS011;11858;51.056;3.712;2023-06-01T05:04:50;9.32;;;8.82;;
23370;SDS011;11858;51.056;3.712;2023-06-01T05:07:16;25.20;;;16.42;;
23370;SDS011;11858;51.056;3.712;2023-06-01T05:09:42;9.75;;;9.15;;
23370;SDS011;11858;51.056;3.712;2023-06-01T05:12:08;10.43;;;9.82;;
23370;SDS011;11858;51.056;3.712;2023-06-01T05:14:34;9.80;;;9.27;;
23370;SDS011;11858;51.056;3.712;2023-06-01T05:16:59;9.52;;;9.02;;
23370;SDS011;11858;51.056;3.712;2023-06-01T05:19:25;10.30;;;9.70;;
23370;SDS011;11858;51.056;3.712;2023-06-01T05:21:51;10.00;;;9.50;;
23370;SDS011;11858;51.056;3.712;2023-06-01T05:24:16;10.88;;;10.20;;
23370;SDS011;11858;51.056;3.712;2023-06-01T05:26:43;10.77;;;10.18;;
23370;SDS011;11858;51.056;3.712;2023-06-01T05:29:09;10.48;;;9.90;;
23370;SDS011;11858;51.056;3.712;2023-06-01T05:31:34;11.65;;;10.93;;
23370;SDS011;11858;51.056;3.712;2023-06-01T05:34:01;11.95;;;11.15;;
23370;SDS011;11858;51.056;3.712;2023-06-01T05:36:27;11.70;;;11.10;;
23370;SDS011;11858;51.056;3.712;2023-06-01T05:38:53;13.60;;;12.73;;
23370;SDS011;11858;51.056;3.712;2023-06-01T05:41:19;11.63;;;10.98;;
23370;SDS011;11858;51.056;3.712;2023-06-01T05:43:44;11.57;;;10.98;;
23370;SDS011;11858;51.056;3.712;2023-06-01T05:46:10;12.57;;;11.88;;
23370;SDS011;11858;51.056;3.712;2023-06-01T05:48:36;13.57;;;12.70;;
23370;SDS011;11858;51.056;3.712;2023-06-01T05:51:01;12.20;;;11.50;;
23370;SDS011;11858;51.056;3.712;2023-06-01T05:53:27;11.68;;;11.07;;
23370;SDS011;11858;51.056;3.712;2023-06-01T05:55:54;12.18;;;11.48;;
23370;SDS011;11858;51.056;3.712;2023-06-01T05:58:20;13.30;;;12.40;;
23370;SDS011;11858;51.056;3.712;2023-06-01T06:00:46;12.77;;;12.07;;
23370;SDS011;11858;51.056;3.712;2023-06-01T06:03:12;12.25;;;11.55;;
23370;SDS011;11858;51.056;3.712;2023-06-01T06:05:38;11.85;;;11.25;;
23370;SDS011;11858;51.056;3.712;2023-06-01T06:08:03;11.95;;;11.35;;
23370;SDS011;11858;51.056;3.712;2023-06-01T06:10:29;14.15;;;13.35;;
23370;SDS011;11858;51.056;3.712;2023-06-01T06:12:55;11.95;;;11.35;;
23370;SDS011;11858;51.056;3.712;2023-06-01T06:15:20;12.63;;;11.93;;
23370;SDS011;11858;51.056;3.712;2023-06-01T06:17:46;12.55;;;11.85;;
23370;SDS011;11858;51.056;3.712;2023-06-01T06:20:12;12.57;;;11.88;;
23370;SDS011;11858;51.056;3.712;2023-06-01T06:22:40;13.18;;;12.48;;
23370;SDS011;11858;51.056;3.712;2023-06-01T06:25:06;15.70;;;14.80;;
23370;SDS011;11858;51.056;3.712;2023-06-01T06:27:33;13.90;;;13.10;;
23370;SDS011;11858;51.056;3.712;2023-06-01T06:29:59;14.95;;;14.05;;
23370;SDS011;11858;51.056;3.712;2023-06-01T06:32:24;13.98;;;13.18;;
23370;SDS011;11858;51.056;3.712;2023-06-01T06:34:50;14.07;;;13.27;;
23370;SDS011;11858;51.056;3.712;2023-06-01T06:37:16;15.70;;;14.30;;
23370;SDS011;11858;51.056;3.712;2023-06-01T06:39:41;15.00;;;13.80;;
23370;SDS011;11858;51.056;3.712;2023-06-01T06:42:09;13.30;;;12.60;;
23370;SDS011;11858;51.056;3.712;2023-06-01T06:44:35;14.32;;;13.52;;
23370;SDS011;11858;51.056;3.712;2023-06-01T06:47:01;14.02;;;13.23;;
23370;SDS011;11858;51.056;3.712;2023-06-01T06:49:26;13.57;;;12.77;;
23370;SDS011;11858;51.056;3.712;2023-06-01T06:51:52;13.80;;;13.00;;
23370;SDS011;11858;51.056;3.712;2023-06-01T06:54:18;14.50;;;13.40;;
23370;SDS011;11858;51.056;3.712;2023-06-01T06:56:44;14.25;;;13.43;;
23370;SDS011;11858;51.056;3.712;2023-06-01T06:59:10;14.00;;;13.20;;
23370;SDS011;11858;51.056;3.712;2023-06-01T07:01:35;14.00;;;13.20;;
23370;SDS011;11858;51.056;3.712;2023-06-01T07:04:03;14.18;;;13.38;;
23370;SDS011;11858;51.056;3.712;2023-06-01T07:06:30;17.83;;;16.13;;
23370;SDS011;11858;51.056;3.712;2023-06-01T07:08:57;14.60;;;13.80;;
23370;SDS011;11858;51.056;3.712;2023-06-01T07:11:23;14.10;;;13.30;;
23370;SDS011;11858;51.056;3.712;2023-06-01T07:13:51;17.40;;;16.00;;
23370;SDS011;11858;51.056;3.712;2023-06-01T07:16:18;13.55;;;12.85;;
23370;SDS011;11858;51.056;3.712;2023-06-01T07:18:43;14.23;;;13.43;;
23370;SDS011;11858;51.056;3.712;2023-06-01T07:21:09;14.48;;;13.68;;
23370;SDS011;11858;51.056;3.712;2023-06-01T07:23:34;15.50;;;14.60;;
23370;SDS011;11858;51.056;3.712;2023-06-01T07:26:00;15.38;;;14.48;;
23370;SDS011;11858;51.056;3.712;2023-06-01T07:28:26;15.25;;;14.35;;
23370;SDS011;11858;51.056;3.712;2023-06-01T07:30:55;15.23;;;14.27;;
23370;SDS011;11858;51.056;3.712;2023-06-01T07:33:20;15.10;;;14.20;;
23370;SDS011;11858;51.056;3.712;2023-06-01T07:35:47;15.60;;;14.70;;
23370;SDS011;11858;51.056;3.712;2023-06-01T07:38:17;15.73;;;14.82;;
23370;SDS011;11858;51.056;3.712;2023-06-01T07:40:44;15.52;;;14.57;;
23370;SDS011;11858;51.056;3.712;2023-06-01T07:43:10;16.80;;;15.70;;
23370;SDS011;11858;51.056;3.712;2023-06-01T07:45:35;16.85;;;15.65;;
23370;SDS011;11858;51.056;3.712;2023-06-01T07:48:01;16.30;;;15.30;;
23370;SDS011;11858;51.056;3.712;2023-06-01T07:50:26;16.98;;;15.88;;
23370;SDS011;11858;51.056;3.712;2023-06-01T07:52:56;15.00;;;14.10;;
23370;SDS011;11858;51.056;3.712;2023-06-01T07:55:22;15.50;;;14.60;;
23370;SDS011;11858;51.056;3.712;2023-06-01T07:57:48;15.30;;;14.40;;
23370;SDS011;11858;51.056;3.712;2023-06-01T08:00:14;16.10;;;15.00;;
23370;SDS011;11858;51.056;3.712;2023-06-01T08:02:42;15.63;;;14.73;;
23370;SDS011;11858;51.056;3.712;2023-06-01T08:05:08;15.82;;;14.90;;
23370;SDS011;11858;51.056;3.712;2023-06-01T08:07:35;15.45;;;14.55;;
23370;SDS011;11858;51.056;3.712;2023-06-01T08:10:03;18.38;;;16.48;;
23370;SDS011;11858;51.056;3.712;2023-06-01T08:12:30;17.20;;;16.02;;
23370;SDS011;11858;51.056;3.712;2023-06-01T08:14:56;17.40;;;16.23;;
23370;SDS011;11858;51.056;3.712;2023-06-01T08:17:23;15.73;;;14.75;;
23370;SDS011;11858;51.056;3.712;2023-06-01T08:19:49;17.23;;;15.90;;
23370;SDS011;11858;51.056;3.712;2023-06-01T08:22:16;16.35;;;15.35;;
23370;SDS011;11858;51.056;3.712;2023-06-01T08:24:42;17.60;;;16.50;;
23370;SDS011;11858;51.056;3.712;2023-06-01T08:27:17;16.45;;;15.45;;
23370;SDS011;11858;51.056;3.712;2023-06-01T08:29:45;17.35;;;16.25;;
23370;SDS011;11858;51.056;3.712;2023-06-01T08:32:11;16.33;;;15.32;;
23370;SDS011;11858;51.056;3.712;2023-06-01T08:34:37;16.45;;;15.45;;
23370;SDS011;11858;51.056;3.712;2023-06-01T08:37:03;16.35;;;15.25;;
23370;SDS011;11858;51.056;3.712;2023-06-01T08:39:29;16.45;;;15.40;;
23370;SDS011;11858;51.056;3.712;2023-06-01T08:44:27;19.85;;;18.33;;
23370;SDS011;11858;51.056;3.712;2023-06-01T08:46:54;16.88;;;15.88;;
23370;SDS011;11858;51.056;3.712;2023-06-01T08:49:20;17.15;;;16.05;;
23370;SDS011;11858;51.056;3.712;2023-06-01T08:51:48;16.38;;;15.35;;
23370;SDS011;11858;51.056;3.712;2023-06-01T08:54:20;17.08;;;16.08;;
23370;SDS011;11858;51.056;3.712;2023-06-01T08:56:46;16.30;;;15.30;;
23370;SDS011;11858;51.056;3.712;2023-06-01T08:59:12;16.40;;;15.40;;
23370;SDS011;11858;51.056;3.712;2023-06-01T09:01:38;17.77;;;16.58;;
23370;SDS011;11858;51.056;3.712;2023-06-01T09:04:04;19.08;;;17.38;;
23370;SDS011;11858;51.056;3.712;2023-06-01T09:06:30;17.88;;;16.48;;
23370;SDS011;11858;51.056;3.712;2023-06-01T09:08:55;16.90;;;15.80;;
23370;SDS011;11858;51.056;3.712;2023-06-01T09:11:21;17.48;;;16.10;;
23370;SDS011;11858;51.056;3.712;2023-06-01T09:13:47;16.95;;;15.82;;
23370;SDS011;11858;51.056;3.712;2023-06-01T09:16:13;16.85;;;15.85;;
23370;SDS011;11858;51.056;3.712;2023-06-01T09:19:00;16.30;;;15.30;;
23370;SDS011;11858;51.056;3.712;2023-06-01T09:21:24;19.77;;;16.20;;
23370;SDS011;11858;51.056;3.712;2023-06-01T09:23:50;18.05;;;16.80;;
23370;SDS011;11858;51.056;3.712;2023-06-01T09:26:18;16.52;;;15.52;;
23370;SDS011;11858;51.056;3.712;2023-06-01T09:34:07;17.90;;;16.80;;
23370;SDS011;11858;51.056;3.712;2023-06-01T09:36:33;17.40;;;16.30;;
23370;SDS011;11858;51.056;3.712;2023-06-01T09:41:27;17.38;;;16.38;;
23370;SDS011;11858;51.056;3.712;2023-06-01T09:44:08;16.35;;;15.38;;
23370;SDS011;11858;51.056;3.712;2023-06-01T09:46:44;16.60;;;15.60;;
23370;SDS011;11858;51.056;3.712;2023-06-01T09:49:18;17.13;;;16.13;;
23370;SDS011;11858;51.056;3.712;2023-06-01T09:54:29;16.95;;;15.70;;
23370;SDS011;11858;51.056;3.712;2023-06-01T09:56:57;14.55;;;13.75;;
23370;SDS011;11858;51.056;3.712;2023-06-01T09:59:24;16.40;;;15.32;;
23370;SDS011;11858;51.056;3.712;2023-06-01T10:01:51;19.98;;;13.57;;
23370;SDS011;11858;51.056;3.712;2023-06-01T10:04:37;14.45;;;13.65;;
23370;SDS011;11858;51.056;3.712;2023-06-01T10:07:05;15.25;;;14.35;;
23370;SDS011;11858;51.056;3.712;2023-06-01T10:09:31;14.57;;;13.77;;
23370;SDS011;11858;51.056;3.712;2023-06-01T10:11:58;14.48;;;13.68;;
23370;SDS011;11858;51.056;3.712;2023-06-01T10:14:25;15.45;;;14.40;;
23370;SDS011;11858;51.056;3.712;2023-06-01T10:16:51;15.48;;;14.05;;
23370;SDS011;11858;51.056;3.712;2023-06-01T10:19:19;15.52;;;14.52;;
23370;SDS011;11858;51.056;3.712;2023-06-01T10:21:46;14.10;;;13.30;;
23370;SDS011;11858;51.056;3.712;2023-06-01T10:24:21;15.55;;;14.55;;
23370;SDS011;11858;51.056;3.712;2023-06-01T10:26:51;14.80;;;13.90;;
23370;SDS011;11858;51.056;3.712;2023-06-01T10:29:20;16.92;;;15.57;;
23370;SDS011;11858;51.056;3.712;2023-06-01T10:31:46;15.95;;;14.95;;
23370;SDS011;11858;51.056;3.712;2023-06-01T10:34:12;15.23;;;14.32;;
23370;SDS011;11858;51.056;3.712;2023-06-01T10:39:31;14.70;;;13.80;;
23370;SDS011;11858;51.056;3.712;2023-06-01T10:41:58;15.98;;;14.73;;
23370;SDS011;11858;51.056;3.712;2023-06-01T10:57:38;14.65;;;13.85;;
23370;SDS011;11858;51.056;3.712;2023-06-01T11:00:11;15.00;;;14.10;;
23370;SDS011;11858;51.056;3.712;2023-06-01T11:02:56;14.70;;;13.85;;
23370;SDS011;11858;51.056;3.712;2023-06-01T11:05:33;14.45;;;13.65;;
23370;SDS011;11858;51.056;3.712;2023-06-01T11:10:53;16.77;;;15.50;;
23370;SDS011;11858;51.056;3.712;2023-06-01T11:13:25;16.17;;;14.98;;
23370;SDS011;11858;51.056;3.712;2023-06-01T11:18:48;15.52;;;14.63;;
23370;SDS011;11858;51.056;3.712;2023-06-01T11:21:23;15.32;;;14.43;;
23370;SDS011;11858;51.056;3.712;2023-06-01T11:23:55;15.88;;;14.88;;
23370;SDS011;11858;51.056;3.712;2023-06-01T11:26:23;14.98;;;14.18;;
23370;SDS011;11858;51.056;3.712;2023-06-01T11:29:08;18.42;;;17.05;;
23370;SDS011;11858;51.056;3.712;2023-06-01T11:31:41;14.90;;;14.10;;
23370;SDS011;11858;51.056;3.712;2023-06-01T11:34:08;14.35;;;13.55;;
23370;SDS011;11858;51.056;3.712;2023-06-01T11:36:38;15.40;;;14.50;;
23370;SDS011;11858;51.056;3.712;2023-06-01T11:39:15;15.60;;;14.70;;
23370;SDS011;11858;51.056;3.712;2023-06-01T11:41:48;15.25;;;14.35;;
23370;SDS011;11858;51.056;3.712;2023-06-01T11:44:15;17.25;;;15.80;;
23370;SDS011;11858;51.056;3.712;2023-06-01T11:46:53;15.35;;;14.45;;
23370;SDS011;11858;51.056;3.712;2023-06-01T11:49:20;21.50;;;19.35;;
23370;SDS011;11858;51.056;3.712;2023-06-01T11:51:47;16.30;;;15.30;;
23370;SDS011;11858;51.056;3.712;2023-06-01T11:54:13;17.50;;;16.45;;
23370;SDS011;11858;51.056;3.712;2023-06-01T11:56:39;15.77;;;14.88;;
23370;SDS011;11858;51.056;3.712;2023-06-01T11:59:06;18.20;;;16.40;;
23370;SDS011;11858;51.056;3.712;2023-06-01T12:01:36;16.63;;;15.43;;
23370;SDS011;11858;51.056;3.712;2023-06-01T12:04:21;16.23;;;15.10;;
23370;SDS011;11858;51.056;3.712;2023-06-01T12:06:49;17.02;;;15.93;;
23370;SDS011;11858;51.056;3.712;2023-06-01T12:09:16;17.67;;;16.48;;
23370;SDS011;11858;51.056;3.712;2023-06-01T12:11:42;16.70;;;15.63;;
23370;SDS011;11858;51.056;3.712;2023-06-01T12:14:09;16.98;;;15.57;;
23370;SDS011;11858;51.056;3.712;2023-06-01T12:16:55;17.70;;;16.45;;
23370;SDS011;11858;51.056;3.712;2023-06-01T12:19:21;17.98;;;16.77;;
23370;SDS011;11858;51.056;3.712;2023-06-01T12:21:48;16.25;;;15.27;;
23370;SDS011;11858;51.056;3.712;2023-06-01T12:24:29;17.15;;;16.00;;
23370;SDS011;11858;51.056;3.712;2023-06-01T12:26:58;17.10;;;16.00;;
23370;SDS011;11858;51.056;3.712;2023-06-01T12:29:38;16.95;;;15.95;;
23370;SDS011;11858;51.056;3.712;2023-06-01T12:32:06;17.75;;;16.65;;
23370;SDS011;11858;51.056;3.712;2023-06-01T12:34:32;16.90;;;15.90;;
23370;SDS011;11858;51.056;3.712;2023-06-01T12:36:58;16.52;;;15.55;;
23370;SDS011;11858;51.056;3.712;2023-06-01T12:39:43;16.00;;;15.10;;
23370;SDS011;11858;51.056;3.712;2023-06-01T12:42:09;20.27;;;18.63;;
23370;SDS011;11858;51.056;3.712;2023-06-01T12:44:36;17.13;;;16.13;;
23370;SDS011;11858;51.056;3.712;2023-06-01T12:47:02;19.88;;;18.48;;
23370;SDS011;11858;51.056;3.712;2023-06-01T12:49:29;17.90;;;16.80;;
23370;SDS011;11858;51.056;3.712;2023-06-01T12:51:55;19.77;;;17.27;;
23370;SDS011;11858;51.056;3.712;2023-06-01T12:54:21;16.90;;;15.90;;
23370;SDS011;11858;51.056;3.712;2023-06-01T12:56:47;18.08;;;16.98;;
23370;SDS011;11858;51.056;3.712;2023-06-01T12:59:13;16.73;;;15.73;;
23370;SDS011;11858;51.056;3.712;2023-06-01T13:01:40;18.20;;;16.77;;
23370;SDS011;11858;51.056;3.712;2023-06-01T13:04:05;16.13;;;15.13;;
23370;SDS011;11858;51.056;3.712;2023-06-01T13:06:32;16.60;;;15.60;;
23370;SDS011;11858;51.056;3.712;2023-06-01T13:08:59;16.90;;;15.90;;
23370;SDS011;11858;51.056;3.712;2023-06-01T13:11:26;18.05;;;16.80;;
23370;SDS011;11858;51.056;3.712;2023-06-01T13:13:52;17.13;;;15.98;;
23370;SDS011;11858;51.056;3.712;2023-06-01T13:16:18;17.95;;;16.75;;
23370;SDS011;11858;51.056;3.712;2023-06-01T13:18:44;16.13;;;15.23;;
23370;SDS011;11858;51.056;3.712;2023-06-01T13:21:12;16.75;;;15.57;;
23370;SDS011;11858;51.056;3.712;2023-06-01T13:23:39;16.00;;;15.10;;
23370;SDS011;11858;51.056;3.712;2023-06-01T13:26:06;17.58;;;16.27;;
23370;SDS011;11858;51.056;3.712;2023-06-01T13:28:33;15.32;;;14.43;;
23370;SDS011;11858;51.056;3.712;2023-06-01T13:30:59;15.27;;;14.40;;
23370;SDS011;11858;51.056;3.712;2023-06-01T13:33:25;15.85;;;14.95;;
23370;SDS011;11858;51.056;3.712;2023-06-01T13:35:51;15.25;;;14.35;;
23370;SDS011;11858;51.056;3.712;2023-06-01T13:38:16;15.05;;;14.25;;
23370;SDS011;11858;51.056;3.712;2023-06-01T13:40:42;16.17;;;15.18;;
23370;SDS011;11858;51.056;3.712;2023-06-01T13:43:08;15.93;;;14.82;;
23370;SDS011;11858;51.056;3.712;2023-06-01T13:45:33;16.00;;;14.88;;
23370;SDS011;11858;51.056;3.712;2023-06-01T13:47:59;15.82;;;14.93;;
23370;SDS011;11858;51.056;3.712;2023-06-01T13:50:25;25.27;;;16.63;;
23370;SDS011;11858;51.056;3.712;2023-06-01T13:52:51;22.55;;;16.13;;
23370;SDS011;11858;51.056;3.712;2023-06-01T13:55:20;15.55;;;14.65;;
23370;SDS011;11858;51.056;3.712;2023-06-01T13:57:46;16.58;;;15.38;;
23370;SDS011;11858;51.056;3.712;2023-06-01T14:00:13;15.80;;;14.90;;
23370;SDS011;11858;51.056;3.712;2023-06-01T14:02:39;16.38;;;15.38;;
23370;SDS011;11858;51.056;3.712;2023-06-01T14:05:05;17.08;;;16.08;;
23370;SDS011;11858;51.056;3.712;2023-06-01T14:07:33;18.40;;;17.30;;
23370;SDS011;11858;51.056;3.712;2023-06-01T14:09:59;17.08;;;16.10;;
23370;SDS011;11858;51.056;3.712;2023-06-01T14:12:25;17.50;;;16.50;;
23370;SDS011;11858;51.056;3.712;2023-06-01T14:14:50;16.60;;;15.68;;
23370;SDS011;11858;51.056;3.712;2023-06-01T14:17:16;17.60;;;16.50;;
23370;SDS011;11858;51.056;3.712;2023-06-01T14:19:42;20.50;;;18.95;;
23370;SDS011;11858;51.056;3.712;2023-06-01T14:22:07;18.45;;;17.35;;
23370;SDS011;11858;51.056;3.712;2023-06-01T14:24:33;18.40;;;17.20;;
23370;SDS011;11858;51.056;3.712;2023-06-01T14:27:02;18.30;;;17.13;;
23370;SDS011;11858;51.056;3.712;2023-06-01T14:29:34;19.50;;;17.77;;
23370;SDS011;11858;51.056;3.712;2023-06-01T14:32:00;18.00;;;16.90;;
23370;SDS011;11858;51.056;3.712;2023-06-01T14:34:26;18.25;;;17.05;;
23370;SDS011;11858;51.056;3.712;2023-06-01T14:36:52;18.15;;;17.05;;
23370;SDS011;11858;51.056;3.712;2023-06-01T14:39:17;19.83;;;18.42;;
23370;SDS011;11858;51.056;3.712;2023-06-01T14:41:43;18.15;;;17.05;;
23370;SDS011;11858;51.056;3.712;2023-06-01T14:44:09;17.65;;;16.65;;
23370;SDS011;11858;51.056;3.712;2023-06-01T14:46:35;17.42;;;16.42;;
23370;SDS011;11858;51.056;3.712;2023-06-01T14:49:00;17.92;;;16.80;;
23370;SDS011;11858;51.056;3.712;2023-06-01T14:51:27;18.05;;;16.95;;
23370;SDS011;11858;51.056;3.712;2023-06-01T14:53:53;17.20;;;16.20;;
23370;SDS011;11858;51.056;3.712;2023-06-01T14:56:19;17.85;;;16.75;;
23370;SDS011;11858;51.056;3.712;2023-06-01T14:58:47;17.90;;;16.67;;
23370;SDS011;11858;51.056;3.712;2023-06-01T15:01:12;19.30;;;17.02;;
23370;SDS011;11858;51.056;3.712;2023-06-01T15:03:44;17.90;;;16.80;;
23370;SDS011;11858;51.056;3.712;2023-06-01T15:06:10;18.60;;;17.30;;
23370;SDS011;11858;51.056;3.712;2023-06-01T15:08:35;17.63;;;16.63;;
23370;SDS011;11858;51.056;3.712;2023-06-01T15:11:04;17.17;;;16.17;;
23370;SDS011;11858;51.056;3.712;2023-06-01T15:13:30;17.80;;;16.70;;